Time;durP1;ratioP1;P1;durP2;ratioP2;P2;SDS_P1;SDS_P2;PMS_P1;PMS_P2;Temp;Humidity;BMP_temperature;BMP_pressure;BME280_temperature;BME280_humidity;BME280_pressure;Samples;Min_cycle;Max_cycle;Signal;HPM_P1;HPM_P2
2021/07/22 00:00:07;;;;;;;2.00;0.50;;;;;;;17.99;64.08;99230.91;1717821;81;21345;-53
2021/07/22 00:02:41;;;;;;;2.05;0.50;;;;;;;17.93;64.10;99221.91;1723000;81;20906;-53
2021/07/22 00:05:08;;;;;;;0.98;0.50;;;;;;;17.89;64.03;99224.52;1716434;81;21100;-52
2021/07/22 00:07:35;;;;;;;1.90;0.60;;;;;;;17.88;64.19;99232.81;1718050;81;21054;-53
2021/07/22 00:10:01;;;;;;;2.35;0.50;;;;;;;17.86;64.40;99232.98;1671769;83;21173;-52
2021/07/22 00:12:28;;;;;;;0.82;0.60;;;;;;;17.84;64.44;99229.52;1717785;81;21082;-52
2021/07/22 00:14:54;;;;;;;1.50;0.40;;;;;;;17.84;64.31;99229.52;1718064;81;21129;-53
2021/07/22 00:17:20;;;;;;;2.30;0.40;;;;;;;17.83;64.31;99231.87;1716035;81;21070;-53
2021/07/22 00:19:46;;;;;;;3.55;0.50;;;;;;;17.83;64.25;99241.39;1718150;81;21053;-53
2021/07/22 00:22:13;;;;;;;1.62;0.50;;;;;;;17.79;64.26;99235.83;1716736;81;22226;-53
2021/07/22 00:24:39;;;;;;;2.17;0.50;;;;;;;17.76;64.31;99233.40;1718408;81;21077;-53
2021/07/22 00:27:05;;;;;;;1.40;0.50;;;;;;;17.73;64.33;99234.52;1719943;81;21514;-53
2021/07/22 00:29:35;;;;;;;1.85;0.50;;;;;;;17.70;64.29;99240.70;1676404;83;22374;-52
2021/07/22 00:32:02;;;;;;;4.58;0.75;;;;;;;17.63;64.43;99240.87;1670159;83;21517;-52
2021/07/22 00:34:29;;;;;;;4.03;0.50;;;;;;;17.59;64.62;99243.47;1658498;84;21736;-52
2021/07/22 00:36:55;;;;;;;1.85;0.50;;;;;;;17.58;64.73;99241.73;1656468;84;21516;-53
2021/07/22 00:39:21;;;;;;;2.20;0.40;;;;;;;17.55;64.76;99239.27;1655124;84;20951;-53
2021/07/22 00:41:50;;;;;;;1.15;0.60;;;;;;;17.55;64.96;99236.05;1657593;84;21564;-52
2021/07/22 00:44:16;;;;;;;5.25;0.50;;;;;;;17.55;65.00;99241.98;1657409;84;20954;-52
2021/07/22 00:46:43;;;;;;;2.77;0.50;;;;;;;17.54;65.03;99243.84;1655318;84;21112;-53
2021/07/22 00:49:10;;;;;;;1.12;0.60;;;;;;;17.53;65.01;99242.11;1637360;84;21364;-53
2021/07/22 00:51:38;;;;;;;0.70;0.50;;;;;;;17.53;64.99;99248.05;1676079;83;21807;-52
2021/07/22 00:54:06;;;;;;;1.67;0.60;;;;;;;17.50;65.09;99252.41;1686700;82;20978;-53
2021/07/22 00:56:33;;;;;;;4.67;0.53;;;;;;;17.47;65.08;99251.30;1682090;82;20910;-52
2021/07/22 00:59:01;;;;;;;2.45;0.40;;;;;;;17.43;65.24;99248.48;1657061;83;21061;-52
2021/07/22 01:01:29;;;;;;;4.28;0.50;;;;;;;17.38;65.38;99249.72;1682878;82;20891;-52
2021/07/22 01:03:56;;;;;;;2.87;0.60;;;;;;;17.36;65.49;99251.69;1688357;82;20929;-50
2021/07/22 01:06:23;;;;;;;1.90;0.50;;;;;;;17.35;65.68;99254.05;1686615;82;20997;-52
2021/07/22 01:08:49;;;;;;;4.00;0.60;;;;;;;17.35;65.88;99254.05;1684444;82;21415;-51
2021/07/22 01:11:24;;;;;;;4.70;0.78;;;;;;;17.35;65.88;99256.77;1682515;82;21479;-51
2021/07/22 01:13:50;;;;;;;2.02;0.70;;;;;;;17.34;65.91;99257.78;1685776;82;21140;-52
2021/07/22 01:16:17;;;;;;;2.75;0.80;;;;;;;17.32;65.92;99265.20;1684097;82;21045;-52
2021/07/22 01:18:44;;;;;;;2.85;0.62;;;;;;;17.32;65.92;99267.05;1680427;82;21156;-51
2021/07/22 01:21:11;;;;;;;5.05;0.72;;;;;;;17.28;65.92;99265.57;1680547;82;21101;-51
2021/07/22 01:23:38;;;;;;;2.55;0.60;;;;;;;17.27;65.93;99270.64;1683588;82;21923;-51
2021/07/22 01:26:12;;;;;;;;;;;;;;;17.26;66.04;99268.45;1663073;82;21421;-51
2021/07/22 01:28:39;;;;;;;4.78;0.60;;;;;;;17.25;66.12;99274.88;1683728;82;20400;-51
2021/07/22 01:31:06;;;;;;;2.45;0.60;;;;;;;17.21;66.17;99277.46;1680829;82;21093;-51
2021/07/22 01:33:33;;;;;;;6.30;0.80;;;;;;;17.21;66.39;99281.55;1685415;82;21398;-52
2021/07/22 01:36:00;;;;;;;1.22;0.80;;;;;;;17.21;66.49;99278.82;1684104;83;21118;-52
2021/07/22 01:38:27;;;;;;;1.65;0.70;;;;;;;17.21;66.47;99281.55;1644310;84;21542;-49
2021/07/22 01:40:59;;;;;;;2.37;0.70;;;;;;;17.20;66.59;99280.30;1626784;86;21488;-52
2021/07/22 01:43:25;;;;;;;2.35;0.90;;;;;;;17.18;66.59;99276.87;1608361;84;21101;-51
2021/07/22 01:45:52;;;;;;;5.17;0.88;;;;;;;17.15;66.68;99277.98;1650604;84;21146;-52
2021/07/22 01:48:18;;;;;;;4.03;0.70;;;;;;;17.12;66.67;99282.30;1643227;84;21147;-52
2021/07/22 01:50:45;;;;;;;0.98;0.62;;;;;;;17.07;66.71;99277.75;1675759;82;21092;-52
2021/07/22 01:53:12;;;;;;;2.87;0.60;;;;;;;17.04;66.82;99282.06;1727629;80;21627;-52
2021/07/22 01:55:38;;;;;;;0.80;0.60;;;;;;;17.02;66.94;99279.96;1727765;80;21031;-52
2021/07/22 01:58:05;;;;;;;2.55;0.65;;;;;;;17.02;67.00;99284.91;1725038;80;21034;-52
2021/07/22 02:00:33;;;;;;;2.75;0.60;;;;;;;17.03;66.96;99278.97;1724264;80;21526;-52
2021/07/22 02:03:50;;;;;;;3.08;0.60;;;;;;;17.07;66.87;99285.04;1775618;78;28470;-52
2021/07/22 02:06:17;;;;;;;2.35;0.80;;;;;;;17.02;66.99;99283.55;1739746;80;21561;-52
2021/07/22 02:08:45;;;;;;;2.52;0.70;;;;;;;17.00;66.93;99300.51;1736577;79;21920;-52
2021/07/22 02:11:11;;;;;;;1.90;0.50;;;;;;;16.97;66.99;99299.39;1695433;81;21096;-51
2021/07/22 02:13:39;;;;;;;6.28;0.53;;;;;;;16.96;67.06;99307.66;1703536;81;21099;-51
2021/07/22 02:16:07;;;;;;;1.50;0.53;;;;;;;16.93;67.14;99299.25;1668677;83;21167;-51
2021/07/22 02:18:33;;;;;;;0.85;0.62;;;;;;;16.92;67.20;99298.05;1702814;82;21135;-52
2021/07/22 02:21:09;;;;;;;4.03;1.02;;;;;;;16.92;67.24;99296.68;1698362;82;21873;-51
2021/07/22 02:23:38;;;;;;;1.47;0.50;;;;;;;16.92;67.21;99301.63;1694952;82;21622;-53
2021/07/22 02:26:12;;;;;;;2.83;0.60;;;;;;;16.91;67.18;99304.47;1676957;82;21069;-54
2021/07/22 02:28:38;;;;;;;1.57;0.53;;;;;;;16.90;67.21;99304.09;1701833;82;21680;-54
2021/07/22 02:31:05;;;;;;;2.70;0.80;;;;;;;16.88;67.23;99305.56;1703012;82;21121;-53
2021/07/22 02:33:32;;;;;;;4.70;0.60;;;;;;;16.85;67.28;99310.38;1701607;82;21106;-53
2021/07/22 02:35:59;;;;;;;2.55;0.60;;;;;;;16.80;67.39;99303.97;1701064;82;21053;-53
2021/07/22 02:38:28;;;;;;;0.90;0.60;;;;;;;16.78;67.51;99308.66;1701393;82;21050;-53
2021/07/22 02:40:54;;;;;;;4.00;0.50;;;;;;;16.77;67.54;99306.05;1675995;82;21163;-53
2021/07/22 02:43:21;;;;;;;3.25;0.60;;;;;;;16.76;67.52;99305.71;1680174;82;21101;-53
2021/07/22 02:45:49;;;;;;;2.58;0.62;;;;;;;16.77;67.53;99312.84;1657801;82;21225;-54
2021/07/22 02:48:15;;;;;;;1.75;0.70;;;;;;;16.77;67.57;99317.79;1682953;82;21108;-53
2021/07/22 02:50:45;;;;;;;1.52;0.90;;;;;;;16.78;67.52;99317.30;1681323;82;21480;-52
2021/07/22 02:53:12;;;;;;;2.40;0.60;;;;;;;16.79;67.55;99316.31;1681331;82;21156;-54
2021/07/22 02:55:41;;;;;;;2.70;0.68;;;;;;;16.78;67.54;99328.17;1681712;82;21117;-53
2021/07/22 02:58:07;;;;;;;0.70;0.60;;;;;;;16.77;67.56;99327.80;1680968;82;21806;-53
2021/07/22 03:00:35;;;;;;;5.10;0.80;;;;;;;16.75;67.61;99329.30;1680155;82;22349;-53
2021/07/22 03:03:02;;;;;;;1.35;0.50;;;;;;;16.73;67.65;99327.69;1684514;82;21075;-54
2021/07/22 03:05:30;;;;;;;1.22;0.70;;;;;;;16.74;67.71;99326.70;1697739;82;21151;-53
2021/07/22 03:07:59;;;;;;;3.00;0.60;;;;;;;16.75;67.64;99331.16;1682622;83;22081;-53
2021/07/22 03:10:26;;;;;;;2.60;0.50;;;;;;;16.75;67.61;99330.66;1680329;83;21040;-53
2021/07/22 03:12:54;;;;;;;2.37;0.70;;;;;;;16.77;67.54;99334.59;1675952;83;20957;-53
2021/07/22 03:15:23;;;;;;;1.75;0.60;;;;;;;16.78;67.43;99340.41;1679782;83;20934;-53
2021/07/22 03:17:50;;;;;;;2.50;0.70;;;;;;;16.78;67.45;99343.98;1661920;83;20904;-52
2021/07/22 03:20:17;;;;;;;3.55;0.70;;;;;;;16.77;67.36;99347.69;1672253;83;20958;-53
2021/07/22 03:22:47;;;;;;;5.83;0.60;;;;;;;16.75;67.23;99348.33;1698529;82;21086;-53
2021/07/22 03:25:16;;;;;;;2.80;0.68;;;;;;;16.73;67.30;99349.43;1652329;83;21709;-53
2021/07/22 03:27:47;;;;;;;4.83;0.50;;;;;;;16.73;67.21;99350.30;1670820;83;21482;-53
2021/07/22 03:30:15;;;;;;;2.15;0.50;;;;;;;16.75;67.23;99345.61;1682808;83;21016;-53
2021/07/22 03:32:43;;;;;;;4.22;0.60;;;;;;;16.78;67.04;99349.91;1682176;83;21566;-53
2021/07/22 03:35:11;;;;;;;0.78;0.60;;;;;;;16.80;66.89;99358.82;1682789;83;21756;-53
2021/07/22 03:37:37;;;;;;;1.10;0.68;;;;;;;16.81;66.82;99360.55;1695676;82;20878;-53
2021/07/22 03:40:08;;;;;;;2.77;0.60;;;;;;;16.82;66.52;99356.85;1680093;83;21523;-53
2021/07/22 03:42:35;;;;;;;7.95;0.95;;;;;;;16.81;66.35;99360.55;1677418;82;20986;-53
2021/07/22 03:45:13;;;;;;;2.77;0.85;;;;;;;16.81;66.36;99359.20;1677429;82;21601;-53
2021/07/22 03:47:40;;;;;;;1.60;0.60;;;;;;;16.79;66.52;99361.16;1700508;82;21045;-53
2021/07/22 03:50:08;;;;;;;0.88;0.60;;;;;;;16.79;66.44;99361.16;1689801;82;20886;-53
2021/07/22 03:52:39;;;;;;;1.20;0.50;;;;;;;16.81;66.28;99355.12;1670868;83;21408;-54
2021/07/22 03:55:06;;;;;;;4.33;0.53;;;;;;;16.84;66.39;99354.88;1672969;83;21439;-53
2021/07/22 03:57:34;;;;;;;3.17;0.60;;;;;;;16.89;66.35;99360.80;1672027;83;21541;-53
2021/07/22 04:00:00;;;;;;;2.03;0.50;;;;;;;16.92;65.98;99357.84;1675028;83;21114;-53
2021/07/22 04:02:29;;;;;;;1.35;0.60;;;;;;;16.95;65.68;99369.81;1693821;82;21017;-54
2021/07/22 04:04:55;;;;;;;1.10;0.60;;;;;;;16.96;65.39;99368.83;1709754;81;21156;-53
2021/07/22 04:07:21;;;;;;;1.90;0.68;;;;;;;16.98;65.41;99370.94;1708198;81;20970;-53
2021/07/22 04:09:53;;;;;;;1.87;0.60;;;;;;;16.97;65.18;99364.64;1707659;81;21062;-53
2021/07/22 04:12:33;;;;;;;2.17;0.72;;;;;;;16.97;64.98;99377.36;1706982;81;22440;-53
2021/07/22 04:15:05;;;;;;;1.22;0.62;;;;;;;17.00;65.06;99374.41;1707993;81;21085;-53
2021/07/22 04:17:33;;;;;;;1.10;0.50;;;;;;;17.03;64.57;99377.73;1707572;81;21134;-53
2021/07/22 04:20:09;;;;;;;;;;;;;;;17.09;64.71;99380.96;1711100;81;21089;-53
2021/07/22 04:22:53;;;;;;;5.65;0.50;;;;;;;17.15;64.57;99381.32;1710612;81;20129;-52
2021/07/22 04:25:36;;;;;;;1.65;0.60;;;;;;;17.21;64.44;99382.67;1663947;83;21117;-52
2021/07/22 04:28:04;;;;;;;1.37;0.50;;;;;;;17.25;63.88;99378.72;1696905;81;21042;-53
2021/07/22 04:30:32;;;;;;;3.92;0.60;;;;;;;17.27;63.37;99378.95;1720035;81;21353;-51
2021/07/22 04:33:11;;;;;;;2.30;0.60;;;;;;;17.32;62.94;99371.78;1714492;81;22137;-52
2021/07/22 04:35:39;;;;;;;2.80;0.60;;;;;;;17.38;62.66;99378.94;1655094;84;21130;-52
2021/07/22 04:38:07;;;;;;;1.87;0.60;;;;;;;17.41;62.61;99381.92;1717800;81;21148;-52
2021/07/22 04:40:36;;;;;;;3.08;0.60;;;;;;;17.44;62.36;99378.09;1697079;81;21034;-52
2021/07/22 04:43:10;;;;;;;3.47;0.50;;;;;;;17.44;62.34;99383.00;1714826;81;21046;-52
2021/07/22 04:45:41;;;;;;;0.60;0.50;;;;;;;17.46;62.33;99378.80;1718751;81;21058;-51
2021/07/22 04:48:11;;;;;;;5.75;0.60;;;;;;;17.49;62.47;99380.79;1661428;82;21085;-52
2021/07/22 04:50:48;;;;;;;0.62;0.50;;;;;;;17.55;62.49;99380.77;1714613;81;22341;-52
2021/07/22 04:53:16;;;;;;;2.25;0.50;;;;;;;17.63;62.65;99379.17;1713083;81;21811;-52
2021/07/22 04:55:48;;;;;;;1.37;0.60;;;;;;;17.71;62.67;99377.17;1715500;81;21098;-52
2021/07/22 04:58:14;;;;;;;1.92;0.50;;;;;;;17.80;62.14;99373.68;1714313;81;21049;-52
2021/07/22 05:00:41;;;;;;;4.22;0.60;;;;;;;17.86;61.71;99369.60;1717071;81;21093;-53
2021/07/22 05:03:09;;;;;;;1.37;0.60;;;;;;;17.91;62.02;99372.78;1711662;80;21126;-52
2021/07/22 05:05:37;;;;;;;1.52;0.53;;;;;;;17.96;61.58;99369.16;1718953;80;21077;-52
2021/07/22 05:08:19;;;;;;;1.10;0.70;;;;;;;18.01;61.70;99378.70;1722619;80;21049;-52
2021/07/22 05:11:04;;;;;;;1.00;0.50;;;;;;;18.06;61.32;99379.66;1719399;80;21134;-52
2021/07/22 05:13:42;;;;;;;4.40;0.55;;;;;;;18.09;61.16;99378.91;1719307;80;21120;-53
2021/07/22 05:16:14;;;;;;;2.20;0.88;;;;;;;18.13;61.21;99371.32;1721668;80;21175;-52
2021/07/22 05:18:51;;;;;;;4.72;0.60;;;;;;;18.18;61.43;99377.75;1685771;80;21029;-52
2021/07/22 05:21:19;;;;;;;7.65;0.60;;;;;;;18.23;61.03;99376.85;1721148;80;21197;-51
2021/07/22 05:23:47;;;;;;;0.98;0.50;;;;;;;18.26;60.58;99377.97;1714423;80;21607;-52
2021/07/22 05:26:25;;;;;;;0.70;0.60;;;;;;;18.30;60.71;99375.33;1728307;80;21097;-53
2021/07/22 05:28:59;;;;;;;4.87;0.50;;;;;;;18.35;60.83;99377.17;1723449;80;22422;-52
2021/07/22 05:31:44;;;;;;;1.02;0.40;;;;;;;18.40;60.85;99388.03;1721699;80;21045;-51
2021/07/22 05:34:29;;;;;;;0.72;0.50;;;;;;;18.47;60.55;99383.78;1733686;80;21025;-52
2021/07/22 05:37:16;;;;;;;1.22;0.70;;;;;;;18.54;60.19;99379.52;1725559;80;21583;-52
2021/07/22 05:39:51;;;;;;;4.20;0.53;;;;;;;18.62;59.83;99384.86;1725184;80;21526;-52
2021/07/22 05:42:18;;;;;;;3.17;0.65;;;;;;;18.69;59.92;99386.91;1722124;80;21144;-53
2021/07/22 05:44:44;;;;;;;2.15;0.60;;;;;;;18.74;59.80;99389.23;1719158;80;21336;-52
2021/07/22 05:47:12;;;;;;;2.60;0.60;;;;;;;18.78;59.78;99387.48;1718428;80;21061;-55
2021/07/22 05:49:38;;;;;;;11.07;0.50;;;;;;;18.83;59.78;99387.92;1719283;80;21626;-52
2021/07/22 05:52:06;;;;;;;6.17;0.60;;;;;;;18.88;60.07;99383.45;1725121;80;21072;-52
2021/07/22 05:54:33;;;;;;;1.70;0.60;;;;;;;18.96;59.83;99388.22;1722766;80;21107;-52
2021/07/22 05:56:59;;;;;;;1.82;0.57;;;;;;;18.99;59.67;99395.61;1721554;80;21096;-52
2021/07/22 05:59:25;;;;;;;4.53;0.70;;;;;;;19.02;59.54;99393.13;1722981;80;21065;-52
2021/07/22 06:01:52;;;;;;;0.72;0.50;;;;;;;19.06;59.60;99400.02;1724345;80;21551;-53
2021/07/22 06:04:18;;;;;;;1.40;0.55;;;;;;;19.09;59.92;99390.20;1725811;80;21109;-52
2021/07/22 06:06:44;;;;;;;1.87;0.57;;;;;;;19.13;59.93;99389.81;1719338;80;22369;-53
2021/07/22 06:09:11;;;;;;;1.47;0.60;;;;;;;19.18;59.72;99391.63;1722941;80;20977;-53
2021/07/22 06:11:37;;;;;;;1.82;1.12;;;;;;;19.24;59.79;99397.02;1719810;80;22037;-52
2021/07/22 06:14:04;;;;;;;5.10;0.60;;;;;;;19.32;60.04;99393.59;1722226;80;22348;-52
2021/07/22 06:16:31;;;;;;;2.72;0.50;;;;;;;19.39;59.74;99395.67;1723552;80;21160;-52
2021/07/22 06:18:57;;;;;;;5.83;0.75;;;;;;;19.45;59.27;99396.47;1720868;80;21135;-52
2021/07/22 06:21:24;;;;;;;2.85;0.50;;;;;;;19.49;59.34;99391.61;1719354;80;21092;-53
2021/07/22 06:23:50;;;;;;;4.30;0.60;;;;;;;19.52;59.11;99396.30;1719744;80;21073;-52
2021/07/22 06:26:17;;;;;;;4.10;0.60;;;;;;;19.58;59.24;99392.14;1717697;80;21069;-52
2021/07/22 06:28:43;;;;;;;4.65;0.62;;;;;;;19.62;59.26;99398.56;1721580;80;21564;-52
2021/07/22 06:31:10;;;;;;;3.02;0.53;;;;;;;19.67;59.31;99395.40;1722632;80;21114;-52
2021/07/22 06:33:36;;;;;;;1.35;0.50;;;;;;;19.72;60.09;99390.41;1720296;80;21029;-52
2021/07/22 06:36:03;;;;;;;2.15;1.17;;;;;;;19.81;59.85;99393.66;1673480;83;21120;-52
2021/07/22 06:38:30;;;;;;;4.30;0.62;;;;;;;19.90;59.47;99387.84;1671543;83;21131;-52
2021/07/22 06:40:57;;;;;;;1.15;0.60;;;;;;;20.00;59.35;99398.26;1723474;80;21073;-52
2021/07/22 06:43:23;;;;;;;3.00;0.55;;;;;;;20.09;59.21;99392.44;1722584;80;21543;-52
2021/07/22 06:45:50;;;;;;;1.65;0.60;;;;;;;20.17;58.90;99390.72;1725955;80;21374;-52
2021/07/22 06:48:18;;;;;;;1.00;0.60;;;;;;;20.24;58.90;99393.27;1722791;80;21042;-52
2021/07/22 06:50:44;;;;;;;2.35;0.50;;;;;;;20.30;58.50;99389.95;1726796;80;21320;-52
2021/07/22 06:53:10;;;;;;;1.30;0.60;;;;;;;20.34;58.56;99393.27;1728505;80;21361;-53
2021/07/22 06:55:38;;;;;;;1.82;0.50;;;;;;;20.38;58.60;99395.59;1725685;80;21763;-52
2021/07/22 06:58:07;;;;;;;2.10;0.60;;;;;;;20.43;59.22;99391.54;1725602;80;20911;-52
2021/07/22 07:00:33;;;;;;;1.22;0.45;;;;;;;20.47;58.61;99393.86;1725423;80;22132;-53
2021/07/22 07:03:07;;;;;;;2.05;0.50;;;;;;;20.50;59.01;99391.34;1722201;80;21045;-52
2021/07/22 07:05:33;;;;;;;2.07;0.60;;;;;;;20.52;58.57;99399.73;1725248;80;20946;-52
2021/07/22 07:08:00;;;;;;;1.95;0.57;;;;;;;20.56;58.38;99397.09;1722428;80;21844;-52
2021/07/22 07:10:26;;;;;;;2.47;0.55;;;;;;;20.59;57.98;99395.41;1718783;80;21321;-52
2021/07/22 07:12:54;;;;;;;1.98;0.50;;;;;;;20.63;58.10;99395.99;1659782;83;22372;-52
2021/07/22 07:15:22;;;;;;;1.55;0.40;;;;;;;20.68;57.97;99397.77;1724268;80;21459;-53
2021/07/22 07:17:49;;;;;;;1.27;0.60;;;;;;;20.73;57.43;99391.37;1723406;80;21532;-52
2021/07/22 07:20:15;;;;;;;1.85;0.40;;;;;;;20.79;57.67;99398.98;1722295;80;21179;-52
2021/07/22 07:22:42;;;;;;;1.72;0.50;;;;;;;20.85;56.24;99393.42;1721185;80;21331;-53
2021/07/22 07:25:10;;;;;;;1.07;0.50;;;;;;;20.92;56.31;99391.34;1722790;80;21675;-52
2021/07/22 07:27:40;;;;;;;1.02;0.42;;;;;;;20.97;55.91;99394.48;1724960;80;21148;-52
2021/07/22 07:30:08;;;;;;;1.02;0.50;;;;;;;21.05;56.10;99395.09;1724271;80;20978;-52
2021/07/22 07:32:35;;;;;;;2.05;0.55;;;;;;;21.13;56.24;99389.74;1723257;80;21464;-52
2021/07/22 07:35:02;;;;;;;2.58;0.50;;;;;;;21.21;55.56;99399.47;1723703;80;21033;-52
2021/07/22 07:37:28;;;;;;;0.60;0.50;;;;;;;21.30;55.03;99399.94;1723896;80;21919;-53
2021/07/22 07:39:56;;;;;;;1.47;0.50;;;;;;;21.36;54.81;99393.85;1720564;80;21054;-53
2021/07/22 07:42:22;;;;;;;0.95;0.50;;;;;;;21.43;55.01;99398.23;1724021;80;21740;-53
2021/07/22 07:44:48;;;;;;;1.30;0.53;;;;;;;21.47;54.30;99398.28;1721078;80;21212;-52
2021/07/22 07:47:15;;;;;;;1.85;0.50;;;;;;;21.51;55.29;99412.90;1724474;80;21100;-53
2021/07/22 07:49:41;;;;;;;0.90;0.53;;;;;;;21.56;53.77;99406.95;1724482;80;21081;-52
2021/07/22 07:52:07;;;;;;;1.20;0.50;;;;;;;21.57;54.16;99405.08;1723975;80;21115;-52
2021/07/22 07:54:34;;;;;;;4.12;0.40;;;;;;;21.62;54.56;99410.95;1718606;80;21468;-52
2021/07/22 07:57:00;;;;;;;0.85;0.65;;;;;;;21.69;54.58;99414.30;1725701;80;21800;-53
2021/07/22 07:59:26;;;;;;;1.55;0.60;;;;;;;21.78;54.65;99407.90;1722225;80;21061;-53
2021/07/22 08:01:53;;;;;;;3.27;0.55;;;;;;;21.89;54.80;99402.22;1724984;80;21049;-52
2021/07/22 08:04:19;;;;;;;0.90;0.40;;;;;;;22.01;54.20;99404.78;1717349;80;21066;-53
2021/07/22 08:06:47;;;;;;;3.30;1.07;;;;;;;22.07;53.83;99405.52;1708651;81;21054;-52
2021/07/22 08:09:14;;;;;;;1.02;0.45;;;;;;;22.06;53.47;99412.02;1709663;81;21138;-54
2021/07/22 08:11:40;;;;;;;0.68;0.50;;;;;;;22.01;53.48;99408.89;1707574;81;21891;-53
2021/07/22 08:14:08;;;;;;;0.75;0.40;;;;;;;21.97;53.22;99406.95;1706864;81;21073;-54
2021/07/22 08:16:34;;;;;;;0.60;0.50;;;;;;;21.96;52.70;99404.33;1709591;81;21160;-54
2021/07/22 08:19:00;;;;;;;0.70;0.42;;;;;;;21.99;52.81;99407.67;1707567;81;21077;-55
2021/07/22 08:21:27;;;;;;;3.15;0.40;;;;;;;22.06;53.56;99405.16;1709729;81;21865;-54
2021/07/22 08:23:55;;;;;;;3.30;0.50;;;;;;;22.16;52.97;99396.37;1706111;81;21057;-54
2021/07/22 08:26:21;;;;;;;2.67;0.40;;;;;;;22.29;52.42;99400.94;1712896;81;21313;-55
2021/07/22 08:28:48;;;;;;;1.55;0.40;;;;;;;22.40;50.92;99403.45;1710874;81;21032;-54
2021/07/22 08:31:16;;;;;;;2.33;0.68;;;;;;;22.45;49.97;99392.03;1707727;81;21114;-54
2021/07/22 08:33:43;;;;;;;1.25;0.40;;;;;;;22.43;49.49;99403.66;1713206;81;21149;-54
2021/07/22 08:36:10;;;;;;;0.40;0.40;;;;;;;22.40;50.52;99399.34;1718016;81;21089;-54
2021/07/22 08:38:36;;;;;;;1.65;0.40;;;;;;;22.44;50.92;99402.12;1708213;81;21066;-54
2021/07/22 08:41:03;;;;;;;2.30;0.40;;;;;;;22.54;50.66;99395.19;1713938;81;21043;-55
2021/07/22 08:43:31;;;;;;;0.40;0.40;;;;;;;22.62;49.75;99390.64;1713693;81;21102;-55
2021/07/22 08:45:58;;;;;;;2.55;0.53;;;;;;;22.71;49.75;99396.19;1710622;81;21571;-54
2021/07/22 08:48:24;;;;;;;0.98;0.50;;;;;;;22.79;49.32;99395.77;1708165;81;21334;-54
2021/07/22 08:50:50;;;;;;;0.75;0.33;;;;;;;22.84;48.79;99396.65;1709150;81;21677;-55
2021/07/22 08:53:18;;;;;;;0.40;0.40;;;;;;;22.90;47.57;99400.97;1711982;81;21495;-55
2021/07/22 08:55:45;;;;;;;2.80;0.42;;;;;;;22.90;46.75;99400.11;1710128;81;21529;-55
2021/07/22 08:58:11;;;;;;;2.83;0.40;;;;;;;22.84;48.50;99404.38;1710195;81;21410;-55
2021/07/22 09:00:37;;;;;;;1.42;0.42;;;;;;;22.81;49.69;99403.81;1711625;81;21422;-54
2021/07/22 09:03:04;;;;;;;0.62;0.40;;;;;;;22.79;50.09;99401.77;1714909;81;20939;-55
2021/07/22 09:05:30;;;;;;;1.25;0.40;;;;;;;22.73;44.69;99411.45;1718515;80;21018;-54
2021/07/22 09:07:57;;;;;;;0.30;0.30;;;;;;;22.67;43.54;99406.60;1727033;80;20938;-54
2021/07/22 09:10:25;;;;;;;1.12;0.40;;;;;;;22.68;43.65;99404.72;1725599;80;20879;-54
2021/07/22 09:12:53;;;;;;;0.42;0.40;;;;;;;22.72;44.10;99408.34;1729319;80;21364;-54
2021/07/22 09:15:25;;;;;;;1.22;0.40;;;;;;;22.81;43.36;99412.05;1722377;80;21845;-54
2021/07/22 09:17:52;;;;;;;0.60;0.40;;;;;;;22.87;42.82;99407.31;1725289;80;21401;-55
2021/07/22 09:20:32;;;;;;;0.35;0.35;;;;;;;22.86;42.97;99398.22;1728318;80;20975;-54
2021/07/22 09:23:00;;;;;;;1.20;0.40;;;;;;;22.93;43.87;99400.66;1723701;80;21131;-54
2021/07/22 09:25:44;;;;;;;2.08;0.40;;;;;;;23.01;44.01;99408.09;1723950;80;21042;-54
2021/07/22 09:28:17;;;;;;;0.30;0.30;;;;;;;23.10;42.83;99401.63;1726967;80;20864;-54
2021/07/22 09:31:04;;;;;;;1.95;0.40;;;;;;;23.16;42.68;99402.86;1662680;83;20997;-55
2021/07/22 09:33:40;;;;;;;3.37;0.57;;;;;;;23.20;41.69;99405.64;1730909;80;21528;-55
2021/07/22 09:36:08;;;;;;;1.40;0.40;;;;;;;23.25;42.33;99404.63;1722514;80;21504;-54
2021/07/22 09:38:34;;;;;;;1.30;0.30;;;;;;;23.29;40.75;99413.77;1725000;80;21351;-55
2021/07/22 09:41:01;;;;;;;0.30;0.30;;;;;;;23.31;41.30;99408.09;1723629;80;20938;-54
2021/07/22 09:43:37;;;;;;;1.57;0.40;;;;;;;23.31;41.39;99402.09;1723637;80;20962;-54
2021/07/22 09:46:04;;;;;;;1.02;0.50;;;;;;;23.33;41.13;99411.03;1725353;80;20910;-54
2021/07/22 09:48:30;;;;;;;0.33;0.30;;;;;;;23.35;40.58;99408.98;1725415;80;21067;-54
2021/07/22 09:50:56;;;;;;;0.72;0.40;;;;;;;23.35;39.76;99412.25;1726703;80;20994;-55
2021/07/22 09:53:25;;;;;;;0.85;0.30;;;;;;;23.36;39.87;99408.48;1726635;80;21101;-55
2021/07/22 09:55:56;;;;;;;0.42;0.30;;;;;;;23.36;37.67;99409.34;1723271;80;21053;-54
2021/07/22 09:58:22;;;;;;;0.42;0.30;;;;;;;23.37;37.61;99408.83;1727624;80;20933;-55
2021/07/22 10:00:51;;;;;;;1.17;0.30;;;;;;;23.37;38.60;99405.58;1722278;80;21385;-55
2021/07/22 10:03:19;;;;;;;0.45;0.30;;;;;;;23.36;40.08;99413.46;1727990;80;21516;-52
2021/07/22 10:05:52;;;;;;;1.15;0.40;;;;;;;23.38;41.47;99411.42;1726870;80;20981;-53
2021/07/22 10:08:20;;;;;;;0.60;0.30;;;;;;;23.40;40.62;99406.59;1723682;80;21768;-54
2021/07/22 10:10:52;;;;;;;0.70;0.30;;;;;;;23.42;39.55;99411.08;1722768;80;21587;-54
2021/07/22 10:13:39;;;;;;;1.87;0.30;;;;;;;23.38;39.33;99406.44;1721542;80;21217;-54
2021/07/22 10:16:09;;;;;;;0.40;0.35;;;;;;;23.37;39.98;99402.83;1721045;80;22527;-53
2021/07/22 10:18:45;;;;;;;0.30;0.30;;;;;;;23.43;39.42;99407.30;1720696;80;21029;-54
2021/07/22 10:21:12;;;;;;;0.60;0.40;;;;;;;23.46;38.19;99404.24;1725008;80;20966;-52
2021/07/22 10:23:39;;;;;;;0.57;0.33;;;;;;;23.45;38.95;99398.39;1721627;80;21647;-52
2021/07/22 10:26:06;;;;;;;0.37;0.30;;;;;;;23.50;38.51;99398.27;1722959;80;22075;-51
2021/07/22 10:28:33;;;;;;;0.40;0.30;;;;;;;23.51;38.46;99410.12;1723721;80;21106;-53
2021/07/22 10:31:02;;;;;;;1.35;0.30;;;;;;;23.56;38.71;99395.40;1727200;80;21010;-53
2021/07/22 10:33:29;;;;;;;1.45;0.40;;;;;;;23.63;38.78;99411.56;1727839;80;21085;-53
2021/07/22 10:35:56;;;;;;;0.30;0.30;;;;;;;23.67;38.95;99412.94;1725245;80;21491;-53
2021/07/22 10:38:24;;;;;;;0.40;0.40;;;;;;;23.69;38.81;99402.66;1719370;80;21093;-55
2021/07/22 10:40:58;;;;;;;1.25;0.40;;;;;;;23.68;38.29;99402.30;1657020;80;21133;-53
2021/07/22 10:43:41;;;;;;;1.10;0.33;;;;;;;23.67;38.97;99397.83;1722635;80;21037;-53
2021/07/22 10:46:20;;;;;;;0.60;0.40;;;;;;;23.64;38.40;99399.05;1725014;80;21057;-54
2021/07/22 10:48:46;;;;;;;0.47;0.30;;;;;;;23.68;39.58;99407.80;1728160;80;21686;-52
2021/07/22 10:51:18;;;;;;;1.27;0.30;;;;;;;23.66;39.85;99407.09;1722303;80;21124;-52
2021/07/22 10:53:52;;;;;;;2.00;0.47;;;;;;;23.62;40.14;99402.97;1723039;80;21080;-55
2021/07/22 10:56:26;;;;;;;0.70;0.40;;;;;;;23.57;39.89;99410.83;1723357;80;24982;-54
2021/07/22 10:58:56;;;;;;;1.75;0.30;;;;;;;23.52;40.66;99404.47;1723804;80;21097;-54
2021/07/22 11:01:48;;;;;;;0.93;0.40;;;;;;;23.51;41.18;99397.77;1724111;80;21107;-53
2021/07/22 11:04:36;;;;;;;1.75;0.47;;;;;;;23.53;40.89;99390.23;1726869;80;21155;-52
2021/07/22 11:07:03;;;;;;;1.25;0.40;;;;;;;23.57;41.67;99391.09;1725128;80;21097;-53
2021/07/22 11:09:48;;;;;;;1.27;0.47;;;;;;;23.61;41.33;99402.62;1725013;80;21120;-54
2021/07/22 11:12:39;;;;;;;2.42;0.40;;;;;;;23.59;41.86;99407.41;1726537;80;21385;-52
2021/07/22 11:15:07;;;;;;;0.50;0.40;;;;;;;23.51;41.97;99409.61;1726996;80;21009;-54
2021/07/22 11:17:35;;;;;;;0.60;0.40;;;;;;;23.38;41.84;99404.55;1732567;80;21064;-54
2021/07/22 11:20:25;;;;;;;0.60;0.50;;;;;;;23.33;41.97;99405.54;1665608;83;21077;-55
2021/07/22 11:22:51;;;;;;;1.12;0.33;;;;;;;23.31;41.68;99408.09;1721767;80;21073;-53
2021/07/22 11:25:18;;;;;;;0.53;0.35;;;;;;;23.32;41.42;99409.30;1721519;80;21092;-53
2021/07/22 11:27:48;;;;;;;1.00;0.40;;;;;;;23.38;41.94;99404.55;1722259;80;21654;-53
2021/07/22 11:30:18;;;;;;;1.07;0.40;;;;;;;23.46;41.94;99403.73;1723577;80;21706;-55
2021/07/22 11:32:44;;;;;;;1.37;0.47;;;;;;;23.53;42.41;99403.45;1723427;80;21589;-53
2021/07/22 11:35:11;;;;;;;1.75;0.28;;;;;;;23.59;42.97;99400.03;1723042;80;21129;-53
2021/07/22 11:37:38;;;;;;;0.45;0.33;;;;;;;23.61;42.60;99413.61;1721453;80;21448;-53
2021/07/22 11:40:11;;;;;;;0.57;0.40;;;;;;;23.55;41.79;99410.16;1726463;80;21046;-52
2021/07/22 11:42:47;;;;;;;;;;;;;;;23.46;41.67;99407.85;1727727;80;20942;-53